sensor_id;sensor_type;location;lat;lon;timestamp;P1;durP1;ratioP1;P2;durP2;ratioP2
7383;SDS011;3733;47.994;8.820;2023-03-16T00:00:42;9.10;;;3.80;;
7383;SDS011;3733;47.994;8.820;2023-03-16T00:03:08;5.90;;;3.80;;
7383;SDS011;3733;47.994;8.820;2023-03-16T00:05:35;7.47;;;4.10;;
7383;SDS011;3733;47.994;8.820;2023-03-16T00:08:01;7.50;;;4.30;;
7383;SDS011;3733;47.994;8.820;2023-03-16T00:10:26;7.70;;;4.30;;
7383;SDS011;3733;47.994;8.820;2023-03-16T00:12:52;7.90;;;4.10;;
7383;SDS011;3733;47.994;8.820;2023-03-16T00:15:18;12.50;;;3.80;;
7383;SDS011;3733;47.994;8.820;2023-03-16T00:17:44;6.50;;;4.90;;
7383;SDS011;3733;47.994;8.820;2023-03-16T00:20:12;6.63;;;3.80;;
7383;SDS011;3733;47.994;8.820;2023-03-16T00:22:39;9.90;;;3.60;;
7383;SDS011;3733;47.994;8.820;2023-03-16T00:25:06;7.30;;;3.87;;
7383;SDS011;3733;47.994;8.820;2023-03-16T00:27:32;11.03;;;4.10;;
7383;SDS011;3733;47.994;8.820;2023-03-16T00:29:58;7.77;;;3.90;;
7383;SDS011;3733;47.994;8.820;2023-03-16T00:32:34;4.07;;;3.30;;
7383;SDS011;3733;47.994;8.820;2023-03-16T00:35:02;6.10;;;3.70;;
7383;SDS011;3733;47.994;8.820;2023-03-16T00:37:28;7.27;;;3.73;;
7383;SDS011;3733;47.994;8.820;2023-03-16T00:39:56;5.43;;;3.67;;
7383;SDS011;3733;47.994;8.820;2023-03-16T00:42:26;4.90;;;3.53;;
7383;SDS011;3733;47.994;8.820;2023-03-16T00:44:56;4.57;;;3.60;;
7383;SDS011;3733;47.994;8.820;2023-03-16T00:47:26;5.57;;;3.60;;
7383;SDS011;3733;47.994;8.820;2023-03-16T00:49:53;5.77;;;3.87;;
7383;SDS011;3733;47.994;8.820;2023-03-16T00:52:19;8.00;;;3.90;;
7383;SDS011;3733;47.994;8.820;2023-03-16T00:54:46;6.57;;;3.67;;
7383;SDS011;3733;47.994;8.820;2023-03-16T00:57:13;5.67;;;3.70;;
7383;SDS011;3733;47.994;8.820;2023-03-16T00:59:42;6.30;;;3.43;;
7383;SDS011;3733;47.994;8.820;2023-03-16T01:02:12;8.03;;;4.07;;
7383;SDS011;3733;47.994;8.820;2023-03-16T01:04:39;7.23;;;4.23;;
7383;SDS011;3733;47.994;8.820;2023-03-16T01:07:09;4.73;;;3.73;;
7383;SDS011;3733;47.994;8.820;2023-03-16T01:09:40;7.90;;;4.90;;
7383;SDS011;3733;47.994;8.820;2023-03-16T01:12:08;8.60;;;4.40;;
7383;SDS011;3733;47.994;8.820;2023-03-16T01:14:35;10.50;;;4.70;;
7383;SDS011;3733;47.994;8.820;2023-03-16T01:17:02;7.73;;;4.10;;
7383;SDS011;3733;47.994;8.820;2023-03-16T01:19:30;7.37;;;4.60;;
7383;SDS011;3733;47.994;8.820;2023-03-16T01:21:59;5.83;;;3.60;;
7383;SDS011;3733;47.994;8.820;2023-03-16T01:24:26;6.63;;;4.00;;
7383;SDS011;3733;47.994;8.820;2023-03-16T01:26:52;5.40;;;3.53;;
7383;SDS011;3733;47.994;8.820;2023-03-16T01:29:18;5.33;;;3.47;;
7383;SDS011;3733;47.994;8.820;2023-03-16T01:31:44;5.80;;;3.30;;
7383;SDS011;3733;47.994;8.820;2023-03-16T01:34:09;7.50;;;4.10;;
7383;SDS011;3733;47.994;8.820;2023-03-16T01:36:40;6.80;;;3.50;;
7383;SDS011;3733;47.994;8.820;2023-03-16T01:39:08;5.90;;;3.63;;
7383;SDS011;3733;47.994;8.820;2023-03-16T01:41:35;4.13;;;3.40;;
7383;SDS011;3733;47.994;8.820;2023-03-16T01:44:01;12.10;;;3.50;;
7383;SDS011;3733;47.994;8.820;2023-03-16T01:46:27;5.17;;;3.83;;
7383;SDS011;3733;47.994;8.820;2023-03-16T01:51:23;6.50;;;3.77;;
7383;SDS011;3733;47.994;8.820;2023-03-16T01:54:04;5.83;;;3.37;;
7383;SDS011;3733;47.994;8.820;2023-03-16T01:56:44;5.30;;;3.90;;
7383;SDS011;3733;47.994;8.820;2023-03-16T01:59:25;5.47;;;3.20;;
7383;SDS011;3733;47.994;8.820;2023-03-16T02:01:55;7.00;;;3.80;;
7383;SDS011;3733;47.994;8.820;2023-03-16T02:06:49;4.33;;;3.30;;
7383;SDS011;3733;47.994;8.820;2023-03-16T02:09:17;5.33;;;3.63;;
7383;SDS011;3733;47.994;8.820;2023-03-16T02:11:43;5.03;;;3.13;;
7383;SDS011;3733;47.994;8.820;2023-03-16T02:14:10;3.00;;;2.73;;
7383;SDS011;3733;47.994;8.820;2023-03-16T02:16:36;4.80;;;3.40;;
7383;SDS011;3733;47.994;8.820;2023-03-16T02:19:04;12.03;;;3.03;;
7383;SDS011;3733;47.994;8.820;2023-03-16T02:21:43;7.10;;;3.77;;
7383;SDS011;3733;47.994;8.820;2023-03-16T02:24:13;8.33;;;4.23;;
7383;SDS011;3733;47.994;8.820;2023-03-16T02:26:52;3.60;;;3.10;;
7383;SDS011;3733;47.994;8.820;2023-03-16T02:32:06;4.00;;;3.00;;
7383;SDS011;3733;47.994;8.820;2023-03-16T02:34:34;4.73;;;2.80;;
7383;SDS011;3733;47.994;8.820;2023-03-16T02:37:00;3.53;;;2.83;;
7383;SDS011;3733;47.994;8.820;2023-03-16T02:39:26;8.70;;;3.00;;
7383;SDS011;3733;47.994;8.820;2023-03-16T02:41:51;5.20;;;3.50;;
7383;SDS011;3733;47.994;8.820;2023-03-16T02:44:24;9.40;;;3.33;;
7383;SDS011;3733;47.994;8.820;2023-03-16T02:46:56;3.80;;;2.90;;
7383;SDS011;3733;47.994;8.820;2023-03-16T02:49:32;3.93;;;3.30;;
7383;SDS011;3733;47.994;8.820;2023-03-16T02:52:04;3.23;;;2.90;;
7383;SDS011;3733;47.994;8.820;2023-03-16T02:54:30;6.00;;;3.40;;
7383;SDS011;3733;47.994;8.820;2023-03-16T02:56:56;9.43;;;3.10;;
7383;SDS011;3733;47.994;8.820;2023-03-16T02:59:21;4.50;;;3.07;;
7383;SDS011;3733;47.994;8.820;2023-03-16T03:01:47;5.00;;;3.63;;
7383;SDS011;3733;47.994;8.820;2023-03-16T03:04:12;4.87;;;2.80;;
7383;SDS011;3733;47.994;8.820;2023-03-16T03:06:38;7.93;;;3.80;;
7383;SDS011;3733;47.994;8.820;2023-03-16T03:09:05;4.90;;;3.60;;
7383;SDS011;3733;47.994;8.820;2023-03-16T03:11:31;4.70;;;3.50;;
7383;SDS011;3733;47.994;8.820;2023-03-16T03:13:57;8.37;;;3.63;;
7383;SDS011;3733;47.994;8.820;2023-03-16T03:16:23;5.20;;;3.10;;
7383;SDS011;3733;47.994;8.820;2023-03-16T03:18:48;5.47;;;3.13;;
7383;SDS011;3733;47.994;8.820;2023-03-16T03:21:16;4.83;;;3.40;;
7383;SDS011;3733;47.994;8.820;2023-03-16T03:23:42;5.03;;;3.20;;
7383;SDS011;3733;47.994;8.820;2023-03-16T03:26:10;7.27;;;4.13;;
7383;SDS011;3733;47.994;8.820;2023-03-16T03:28:38;4.27;;;3.50;;
7383;SDS011;3733;47.994;8.820;2023-03-16T03:31:03;5.97;;;3.47;;
7383;SDS011;3733;47.994;8.820;2023-03-16T03:33:29;5.60;;;3.23;;
7383;SDS011;3733;47.994;8.820;2023-03-16T03:35:58;7.10;;;3.60;;
7383;SDS011;3733;47.994;8.820;2023-03-16T03:38:24;7.47;;;4.00;;
7383;SDS011;3733;47.994;8.820;2023-03-16T03:40:50;6.33;;;3.50;;
7383;SDS011;3733;47.994;8.820;2023-03-16T03:43:16;5.30;;;3.90;;
7383;SDS011;3733;47.994;8.820;2023-03-16T03:45:42;6.17;;;3.50;;
7383;SDS011;3733;47.994;8.820;2023-03-16T03:48:08;5.00;;;4.00;;
7383;SDS011;3733;47.994;8.820;2023-03-16T03:50:33;13.83;;;4.47;;
7383;SDS011;3733;47.994;8.820;2023-03-16T03:52:59;9.17;;;4.23;;
7383;SDS011;3733;47.994;8.820;2023-03-16T03:55:25;7.73;;;3.67;;
7383;SDS011;3733;47.994;8.820;2023-03-16T03:57:50;6.40;;;3.97;;
7383;SDS011;3733;47.994;8.820;2023-03-16T04:00:16;7.53;;;4.13;;
7383;SDS011;3733;47.994;8.820;2023-03-16T04:02:45;5.83;;;3.80;;
7383;SDS011;3733;47.994;8.820;2023-03-16T04:05:11;6.10;;;3.40;;
7383;SDS011;3733;47.994;8.820;2023-03-16T04:07:36;7.10;;;3.60;;
7383;SDS011;3733;47.994;8.820;2023-03-16T04:10:02;7.20;;;3.77;;
7383;SDS011;3733;47.994;8.820;2023-03-16T04:12:29;3.93;;;3.43;;
7383;SDS011;3733;47.994;8.820;2023-03-16T04:14:55;14.97;;;4.10;;
7383;SDS011;3733;47.994;8.820;2023-03-16T04:17:20;11.80;;;3.57;;
7383;SDS011;3733;47.994;8.820;2023-03-16T04:19:47;11.43;;;3.83;;
7383;SDS011;3733;47.994;8.820;2023-03-16T04:22:13;5.10;;;3.77;;
7383;SDS011;3733;47.994;8.820;2023-03-16T04:24:39;5.90;;;3.40;;
7383;SDS011;3733;47.994;8.820;2023-03-16T04:27:07;8.90;;;3.40;;
7383;SDS011;3733;47.994;8.820;2023-03-16T04:29:33;4.00;;;3.60;;
7383;SDS011;3733;47.994;8.820;2023-03-16T04:31:59;4.00;;;3.40;;
7383;SDS011;3733;47.994;8.820;2023-03-16T04:34:24;4.70;;;3.57;;
7383;SDS011;3733;47.994;8.820;2023-03-16T04:36:51;5.40;;;3.50;;
7383;SDS011;3733;47.994;8.820;2023-03-16T04:39:17;7.80;;;4.47;;
7383;SDS011;3733;47.994;8.820;2023-03-16T04:41:43;5.60;;;4.33;;
7383;SDS011;3733;47.994;8.820;2023-03-16T04:44:09;11.80;;;6.27;;
7383;SDS011;3733;47.994;8.820;2023-03-16T04:46:34;11.07;;;4.23;;
7383;SDS011;3733;47.994;8.820;2023-03-16T04:49:00;8.67;;;4.27;;
7383;SDS011;3733;47.994;8.820;2023-03-16T04:51:26;6.90;;;4.10;;
7383;SDS011;3733;47.994;8.820;2023-03-16T04:53:52;5.63;;;3.90;;
7383;SDS011;3733;47.994;8.820;2023-03-16T04:56:18;4.67;;;3.47;;
7383;SDS011;3733;47.994;8.820;2023-03-16T04:58:45;6.30;;;3.27;;
7383;SDS011;3733;47.994;8.820;2023-03-16T05:01:12;5.67;;;3.73;;
7383;SDS011;3733;47.994;8.820;2023-03-16T05:03:38;4.47;;;4.07;;
7383;SDS011;3733;47.994;8.820;2023-03-16T05:06:04;3.80;;;3.30;;
7383;SDS011;3733;47.994;8.820;2023-03-16T05:08:29;5.90;;;3.40;;
7383;SDS011;3733;47.994;8.820;2023-03-16T05:10:56;8.93;;;3.60;;
7383;SDS011;3733;47.994;8.820;2023-03-16T05:13:22;5.30;;;3.97;;
7383;SDS011;3733;47.994;8.820;2023-03-16T05:15:48;9.67;;;4.60;;
7383;SDS011;3733;47.994;8.820;2023-03-16T05:18:14;6.97;;;5.10;;
7383;SDS011;3733;47.994;8.820;2023-03-16T05:20:39;6.33;;;5.10;;
7383;SDS011;3733;47.994;8.820;2023-03-16T05:23:06;8.37;;;6.00;;
7383;SDS011;3733;47.994;8.820;2023-03-16T05:25:32;6.40;;;4.80;;
7383;SDS011;3733;47.994;8.820;2023-03-16T05:27:58;6.07;;;5.20;;
7383;SDS011;3733;47.994;8.820;2023-03-16T05:30:24;11.00;;;4.50;;
7383;SDS011;3733;47.994;8.820;2023-03-16T05:32:50;5.27;;;4.47;;
7383;SDS011;3733;47.994;8.820;2023-03-16T05:35:16;6.83;;;4.30;;
7383;SDS011;3733;47.994;8.820;2023-03-16T05:37:42;9.17;;;4.20;;
7383;SDS011;3733;47.994;8.820;2023-03-16T05:40:12;8.00;;;4.97;;
7383;SDS011;3733;47.994;8.820;2023-03-16T05:42:43;12.17;;;7.60;;
7383;SDS011;3733;47.994;8.820;2023-03-16T05:45:11;9.60;;;7.97;;
7383;SDS011;3733;47.994;8.820;2023-03-16T05:47:38;8.83;;;6.83;;
7383;SDS011;3733;47.994;8.820;2023-03-16T05:50:05;16.77;;;6.47;;
7383;SDS011;3733;47.994;8.820;2023-03-16T05:52:33;10.70;;;6.43;;
7383;SDS011;3733;47.994;8.820;2023-03-16T05:54:58;7.07;;;5.30;;
7383;SDS011;3733;47.994;8.820;2023-03-16T05:57:24;9.77;;;5.63;;
7383;SDS011;3733;47.994;8.820;2023-03-16T05:59:50;9.67;;;5.77;;
7383;SDS011;3733;47.994;8.820;2023-03-16T06:02:16;8.73;;;5.90;;
7383;SDS011;3733;47.994;8.820;2023-03-16T06:04:42;9.27;;;5.70;;
7383;SDS011;3733;47.994;8.820;2023-03-16T06:07:08;10.70;;;6.57;;
7383;SDS011;3733;47.994;8.820;2023-03-16T06:09:34;10.47;;;5.50;;
7383;SDS011;3733;47.994;8.820;2023-03-16T06:12:00;10.67;;;6.03;;
7383;SDS011;3733;47.994;8.820;2023-03-16T06:14:26;11.30;;;5.97;;
7383;SDS011;3733;47.994;8.820;2023-03-16T06:16:52;8.20;;;5.60;;
7383;SDS011;3733;47.994;8.820;2023-03-16T06:19:17;11.37;;;6.40;;
7383;SDS011;3733;47.994;8.820;2023-03-16T06:21:43;12.50;;;5.87;;
7383;SDS011;3733;47.994;8.820;2023-03-16T06:24:08;9.10;;;6.00;;
7383;SDS011;3733;47.994;8.820;2023-03-16T06:26:34;9.03;;;6.00;;
7383;SDS011;3733;47.994;8.820;2023-03-16T06:29:01;15.17;;;7.20;;
7383;SDS011;3733;47.994;8.820;2023-03-16T06:31:27;14.20;;;7.30;;
7383;SDS011;3733;47.994;8.820;2023-03-16T06:33:53;23.33;;;7.80;;
7383;SDS011;3733;47.994;8.820;2023-03-16T06:36:19;18.97;;;8.43;;
7383;SDS011;3733;47.994;8.820;2023-03-16T06:38:45;17.43;;;7.77;;
7383;SDS011;3733;47.994;8.820;2023-03-16T06:41:10;14.00;;;7.40;;
7383;SDS011;3733;47.994;8.820;2023-03-16T06:43:36;12.57;;;7.00;;
7383;SDS011;3733;47.994;8.820;2023-03-16T06:46:02;10.67;;;7.00;;
7383;SDS011;3733;47.994;8.820;2023-03-16T06:48:28;14.33;;;6.40;;
7383;SDS011;3733;47.994;8.820;2023-03-16T06:50:53;8.80;;;5.77;;
7383;SDS011;3733;47.994;8.820;2023-03-16T06:53:19;9.37;;;5.90;;
7383;SDS011;3733;47.994;8.820;2023-03-16T06:55:46;8.43;;;5.23;;
7383;SDS011;3733;47.994;8.820;2023-03-16T06:58:12;10.73;;;5.57;;
7383;SDS011;3733;47.994;8.820;2023-03-16T07:00:38;6.87;;;5.20;;
7383;SDS011;3733;47.994;8.820;2023-03-16T07:03:03;9.13;;;5.80;;
7383;SDS011;3733;47.994;8.820;2023-03-16T07:05:29;8.80;;;5.60;;
7383;SDS011;3733;47.994;8.820;2023-03-16T07:07:55;12.63;;;7.10;;
7383;SDS011;3733;47.994;8.820;2023-03-16T07:10:21;13.53;;;6.30;;
7383;SDS011;3733;47.994;8.820;2023-03-16T07:12:47;9.30;;;6.20;;
7383;SDS011;3733;47.994;8.820;2023-03-16T07:15:14;12.70;;;6.80;;
7383;SDS011;3733;47.994;8.820;2023-03-16T07:17:40;11.40;;;6.67;;
7383;SDS011;3733;47.994;8.820;2023-03-16T07:20:07;10.10;;;5.97;;
7383;SDS011;3733;47.994;8.820;2023-03-16T07:22:35;12.27;;;6.30;;
7383;SDS011;3733;47.994;8.820;2023-03-16T07:25:02;10.20;;;6.17;;
7383;SDS011;3733;47.994;8.820;2023-03-16T07:27:28;16.20;;;8.47;;
7383;SDS011;3733;47.994;8.820;2023-03-16T07:29:54;16.40;;;8.53;;
7383;SDS011;3733;47.994;8.820;2023-03-16T07:32:20;14.33;;;7.93;;
7383;SDS011;3733;47.994;8.820;2023-03-16T07:34:46;12.67;;;7.87;;
7383;SDS011;3733;47.994;8.820;2023-03-16T07:37:13;16.30;;;9.33;;
7383;SDS011;3733;47.994;8.820;2023-03-16T07:39:40;19.67;;;9.70;;
7383;SDS011;3733;47.994;8.820;2023-03-16T07:42:06;22.10;;;9.37;;
7383;SDS011;3733;47.994;8.820;2023-03-16T07:44:32;18.43;;;10.23;;
7383;SDS011;3733;47.994;8.820;2023-03-16T07:46:57;17.10;;;8.57;;
7383;SDS011;3733;47.994;8.820;2023-03-16T07:49:23;15.63;;;7.60;;
7383;SDS011;3733;47.994;8.820;2023-03-16T07:51:49;16.30;;;7.70;;
7383;SDS011;3733;47.994;8.820;2023-03-16T07:54:15;15.77;;;8.87;;
7383;SDS011;3733;47.994;8.820;2023-03-16T07:56:41;18.13;;;8.40;;
7383;SDS011;3733;47.994;8.820;2023-03-16T07:59:07;15.27;;;8.20;;
7383;SDS011;3733;47.994;8.820;2023-03-16T08:01:33;22.00;;;10.13;;
7383;SDS011;3733;47.994;8.820;2023-03-16T08:03:59;17.20;;;8.73;;
7383;SDS011;3733;47.994;8.820;2023-03-16T08:06:26;19.57;;;9.67;;
7383;SDS011;3733;47.994;8.820;2023-03-16T08:08:52;17.27;;;8.37;;
7383;SDS011;3733;47.994;8.820;2023-03-16T08:11:18;14.00;;;8.07;;
7383;SDS011;3733;47.994;8.820;2023-03-16T08:13:50;11.60;;;7.13;;
7383;SDS011;3733;47.994;8.820;2023-03-16T08:16:20;10.90;;;8.10;;
7383;SDS011;3733;47.994;8.820;2023-03-16T08:18:47;14.43;;;8.50;;
7383;SDS011;3733;47.994;8.820;2023-03-16T08:21:14;14.20;;;7.20;;
7383;SDS011;3733;47.994;8.820;2023-03-16T08:23:41;13.03;;;7.70;;
7383;SDS011;3733;47.994;8.820;2023-03-16T08:26:13;10.47;;;7.53;;
7383;SDS011;3733;47.994;8.820;2023-03-16T08:28:39;15.43;;;7.87;;
7383;SDS011;3733;47.994;8.820;2023-03-16T08:31:06;10.80;;;7.37;;
7383;SDS011;3733;47.994;8.820;2023-03-16T08:33:32;13.60;;;7.63;;
7383;SDS011;3733;47.994;8.820;2023-03-16T08:35:58;14.40;;;7.20;;
7383;SDS011;3733;47.994;8.820;2023-03-16T08:38:24;11.30;;;6.70;;
7383;SDS011;3733;47.994;8.820;2023-03-16T08:40:50;12.43;;;6.90;;
7383;SDS011;3733;47.994;8.820;2023-03-16T08:43:16;14.63;;;7.60;;
7383;SDS011;3733;47.994;8.820;2023-03-16T08:45:46;13.50;;;7.30;;
7383;SDS011;3733;47.994;8.820;2023-03-16T08:48:12;15.17;;;6.77;;
7383;SDS011;3733;47.994;8.820;2023-03-16T08:50:42;12.90;;;7.77;;
7383;SDS011;3733;47.994;8.820;2023-03-16T08:53:09;15.70;;;7.53;;
7383;SDS011;3733;47.994;8.820;2023-03-16T08:55:36;15.37;;;8.10;;
7383;SDS011;3733;47.994;8.820;2023-03-16T08:58:02;20.00;;;7.33;;
7383;SDS011;3733;47.994;8.820;2023-03-16T09:00:27;9.40;;;6.07;;
7383;SDS011;3733;47.994;8.820;2023-03-16T09:02:53;14.53;;;7.17;;
7383;SDS011;3733;47.994;8.820;2023-03-16T09:05:19;12.57;;;6.90;;
7383;SDS011;3733;47.994;8.820;2023-03-16T09:07:47;11.40;;;6.97;;
7383;SDS011;3733;47.994;8.820;2023-03-16T09:10:12;10.43;;;7.03;;
7383;SDS011;3733;47.994;8.820;2023-03-16T09:12:40;15.10;;;7.03;;
7383;SDS011;3733;47.994;8.820;2023-03-16T09:15:06;9.67;;;5.80;;
7383;SDS011;3733;47.994;8.820;2023-03-16T09:17:34;8.30;;;5.27;;
7383;SDS011;3733;47.994;8.820;2023-03-16T09:20:00;9.27;;;5.63;;
7383;SDS011;3733;47.994;8.820;2023-03-16T09:22:27;8.00;;;5.27;;
7383;SDS011;3733;47.994;8.820;2023-03-16T09:24:52;8.70;;;6.03;;
7383;SDS011;3733;47.994;8.820;2023-03-16T09:27:18;6.10;;;4.13;;
7383;SDS011;3733;47.994;8.820;2023-03-16T09:29:44;4.97;;;3.80;;
7383;SDS011;3733;47.994;8.820;2023-03-16T09:32:10;5.70;;;3.97;;
7383;SDS011;3733;47.994;8.820;2023-03-16T09:34:37;4.77;;;4.00;;
7383;SDS011;3733;47.994;8.820;2023-03-16T09:37:03;6.23;;;3.53;;
7383;SDS011;3733;47.994;8.820;2023-03-16T09:39:29;4.80;;;2.50;;
7383;SDS011;3733;47.994;8.820;2023-03-16T09:47:31;5.87;;;2.80;;
7383;SDS011;3733;47.994;8.820;2023-03-16T09:50:01;4.10;;;2.33;;
7383;SDS011;3733;47.994;8.820;2023-03-16T09:57:57;3.40;;;2.77;;
7383;SDS011;3733;47.994;8.820;2023-03-16T10:00:33;2.57;;;2.07;;
7383;SDS011;3733;47.994;8.820;2023-03-16T10:05:38;2.90;;;2.43;;
7383;SDS011;3733;47.994;8.820;2023-03-16T10:08:11;4.53;;;2.73;;
7383;SDS011;3733;47.994;8.820;2023-03-16T10:13:39;4.60;;;2.70;;
7383;SDS011;3733;47.994;8.820;2023-03-16T10:16:08;2.47;;;2.27;;
7383;SDS011;3733;47.994;8.820;2023-03-16T10:18:44;4.93;;;2.40;;
7383;SDS011;3733;47.994;8.820;2023-03-16T10:21:13;2.63;;;2.20;;
7383;SDS011;3733;47.994;8.820;2023-03-16T10:23:42;2.60;;;2.13;;
7383;SDS011;3733;47.994;8.820;2023-03-16T10:26:11;4.03;;;2.40;;
7383;SDS011;3733;47.994;8.820;2023-03-16T10:28:39;3.70;;;3.10;;
7383;SDS011;3733;47.994;8.820;2023-03-16T10:31:08;3.90;;;2.60;;
7383;SDS011;3733;47.994;8.820;2023-03-16T10:33:36;3.90;;;2.53;;
7383;SDS011;3733;47.994;8.820;2023-03-16T10:39:13;4.07;;;2.80;;
7383;SDS011;3733;47.994;8.820;2023-03-16T10:41:44;6.23;;;2.80;;
7383;SDS011;3733;47.994;8.820;2023-03-16T10:44:21;4.57;;;3.17;;
7383;SDS011;3733;47.994;8.820;2023-03-16T10:46:56;4.60;;;3.10;;
7383;SDS011;3733;47.994;8.820;2023-03-16T10:52:28;3.93;;;3.13;;
7383;SDS011;3733;47.994;8.820;2023-03-16T10:55:40;3.77;;;3.10;;
7383;SDS011;3733;47.994;8.820;2023-03-16T10:57:57;3.37;;;3.07;;
7383;SDS011;3733;47.994;8.820;2023-03-16T11:03:00;4.83;;;3.37;;
7383;SDS011;3733;47.994;8.820;2023-03-16T11:05:36;3.80;;;3.20;;
7383;SDS011;3733;47.994;8.820;2023-03-16T11:10:45;9.60;;;4.13;;
7383;SDS011;3733;47.994;8.820;2023-03-16T11:13:18;6.03;;;3.27;;
7383;SDS011;3733;47.994;8.820;2023-03-16T11:15:50;5.80;;;3.30;;
7383;SDS011;3733;47.994;8.820;2023-03-16T11:20:55;7.67;;;3.93;;
7383;SDS011;3733;47.994;8.820;2023-03-16T11:23:42;4.10;;;3.60;;
7383;SDS011;3733;47.994;8.820;2023-03-16T11:26:15;3.83;;;3.50;;
7383;SDS011;3733;47.994;8.820;2023-03-16T11:29:08;5.10;;;3.80;;
7383;SDS011;3733;47.994;8.820;2023-03-16T11:34:28;5.60;;;3.50;;
7383;SDS011;3733;47.994;8.820;2023-03-16T11:36:56;6.37;;;3.53;;
7383;SDS011;3733;47.994;8.820;2023-03-16T11:39:59;4.47;;;2.90;;
7383;SDS011;3733;47.994;8.820;2023-03-16T11:42:36;4.17;;;3.57;;
7383;SDS011;3733;47.994;8.820;2023-03-16T11:50:35;2.60;;;2.30;;
7383;SDS011;3733;47.994;8.820;2023-03-16T12:07:16;2.40;;;2.20;;
7383;SDS011;3733;47.994;8.820;2023-03-16T12:12:37;3.77;;;2.80;;
7383;SDS011;3733;47.994;8.820;2023-03-16T12:17:59;2.80;;;2.50;;
7383;SDS011;3733;47.994;8.820;2023-03-16T12:20:36;4.20;;;2.43;;
7383;SDS011;3733;47.994;8.820;2023-03-16T12:23:12;6.10;;;2.37;;
7383;SDS011;3733;47.994;8.820;2023-03-16T12:25:46;2.70;;;2.27;;
7383;SDS011;3733;47.994;8.820;2023-03-16T12:28:20;6.10;;;2.80;;
7383;SDS011;3733;47.994;8.820;2023-03-16T12:30:53;2.87;;;2.63;;
7383;SDS011;3733;47.994;8.820;2023-03-16T12:33:32;3.37;;;2.97;;
7383;SDS011;3733;47.994;8.820;2023-03-16T12:41:34;2.83;;;2.00;;
7383;SDS011;3733;47.994;8.820;2023-03-16T12:44:16;2.77;;;2.30;;
7383;SDS011;3733;47.994;8.820;2023-03-16T12:46:58;2.40;;;2.20;;
7383;SDS011;3733;47.994;8.820;2023-03-16T12:49:37;3.67;;;2.30;;
7383;SDS011;3733;47.994;8.820;2023-03-16T12:52:07;2.33;;;1.83;;
7383;SDS011;3733;47.994;8.820;2023-03-16T12:54:36;2.07;;;1.87;;
7383;SDS011;3733;47.994;8.820;2023-03-16T12:57:17;2.10;;;1.63;;
7383;SDS011;3733;47.994;8.820;2023-03-16T12:59:45;1.90;;;1.50;;
7383;SDS011;3733;47.994;8.820;2023-03-16T13:02:16;4.53;;;1.60;;
7383;SDS011;3733;47.994;8.820;2023-03-16T13:04:55;4.70;;;1.77;;
7383;SDS011;3733;47.994;8.820;2023-03-16T13:07:24;1.73;;;1.63;;
7383;SDS011;3733;47.994;8.820;2023-03-16T13:10:08;5.90;;;2.07;;
7383;SDS011;3733;47.994;8.820;2023-03-16T13:12:37;2.47;;;2.03;;
7383;SDS011;3733;47.994;8.820;2023-03-16T13:15:24;9.40;;;2.00;;
7383;SDS011;3733;47.994;8.820;2023-03-16T13:20:57;2.13;;;1.93;;
7383;SDS011;3733;47.994;8.820;2023-03-16T13:28:40;2.77;;;1.70;;
7383;SDS011;3733;47.994;8.820;2023-03-16T13:34:01;2.20;;;1.90;;
7383;SDS011;3733;47.994;8.820;2023-03-16T13:36:30;2.27;;;2.07;;
7383;SDS011;3733;47.994;8.820;2023-03-16T13:39:01;3.10;;;1.70;;
7383;SDS011;3733;47.994;8.820;2023-03-16T13:41:53;3.87;;;2.13;;
7383;SDS011;3733;47.994;8.820;2023-03-16T13:44:23;1.90;;;1.80;;
7383;SDS011;3733;47.994;8.820;2023-03-16T13:46:49;2.90;;;1.93;;
7383;SDS011;3733;47.994;8.820;2023-03-16T13:49:15;2.00;;;1.80;;
7383;SDS011;3733;47.994;8.820;2023-03-16T13:51:42;2.70;;;1.63;;
7383;SDS011;3733;47.994;8.820;2023-03-16T13:54:17;3.33;;;1.60;;
7383;SDS011;3733;47.994;8.820;2023-03-16T13:56:52;3.53;;;1.60;;
7383;SDS011;3733;47.994;8.820;2023-03-16T13:59:21;1.60;;;1.50;;
7383;SDS011;3733;47.994;8.820;2023-03-16T14:01:53;1.90;;;1.80;;
7383;SDS011;3733;47.994;8.820;2023-03-16T14:04:23;2.87;;;1.77;;
7383;SDS011;3733;47.994;8.820;2023-03-16T14:06:56;2.40;;;1.63;;
7383;SDS011;3733;47.994;8.820;2023-03-16T14:09:28;2.77;;;1.50;;
7383;SDS011;3733;47.994;8.820;2023-03-16T14:11:57;3.40;;;1.80;;
7383;SDS011;3733;47.994;8.820;2023-03-16T14:14:29;1.83;;;1.57;;
7383;SDS011;3733;47.994;8.820;2023-03-16T14:17:02;1.83;;;1.67;;
7383;SDS011;3733;47.994;8.820;2023-03-16T14:19:35;1.83;;;1.40;;
7383;SDS011;3733;47.994;8.820;2023-03-16T14:22:15;1.77;;;1.53;;
7383;SDS011;3733;47.994;8.820;2023-03-16T14:24:43;1.50;;;1.40;;
7383;SDS011;3733;47.994;8.820;2023-03-16T14:27:18;1.47;;;1.30;;
7383;SDS011;3733;47.994;8.820;2023-03-16T14:30:00;2.10;;;1.80;;
7383;SDS011;3733;47.994;8.820;2023-03-16T14:32:41;3.47;;;1.90;;
7383;SDS011;3733;47.994;8.820;2023-03-16T14:35:19;2.10;;;1.90;;
7383;SDS011;3733;47.994;8.820;2023-03-16T14:37:45;1.87;;;1.60;;
7383;SDS011;3733;47.994;8.820;2023-03-16T14:42:55;2.70;;;1.83;;
7383;SDS011;3733;47.994;8.820;2023-03-16T14:45:24;5.07;;;1.77;;
7383;SDS011;3733;47.994;8.820;2023-03-16T14:47:53;4.63;;;1.63;;
7383;SDS011;3733;47.994;8.820;2023-03-16T14:50:27;1.80;;;1.60;;
7383;SDS011;3733;47.994;8.820;2023-03-16T14:52:53;2.30;;;1.43;;
7383;SDS011;3733;47.994;8.820;2023-03-16T14:55:20;5.17;;;2.10;;
7383;SDS011;3733;47.994;8.820;2023-03-16T14:57:47;2.90;;;1.83;;
7383;SDS011;3733;47.994;8.820;2023-03-16T15:00:17;2.03;;;1.80;;
7383;SDS011;3733;47.994;8.820;2023-03-16T15:03:06;2.13;;;1.87;;
7383;SDS011;3733;47.994;8.820;2023-03-16T15:05:35;5.83;;;2.17;;
7383;SDS011;3733;47.994;8.820;2023-03-16T15:08:03;3.17;;;2.37;;
7383;SDS011;3733;47.994;8.820;2023-03-16T15:10:31;2.90;;;2.37;;
7383;SDS011;3733;47.994;8.820;2023-03-16T15:12:58;2.40;;;2.00;;
7383;SDS011;3733;47.994;8.820;2023-03-16T15:15:48;2.40;;;2.00;;
7383;SDS011;3733;47.994;8.820;2023-03-16T15:18:14;3.40;;;1.83;;
7383;SDS011;3733;47.994;8.820;2023-03-16T15:20:41;2.10;;;1.87;;
7383;SDS011;3733;47.994;8.820;2023-03-16T15:23:10;2.60;;;2.07;;
7383;SDS011;3733;47.994;8.820;2023-03-16T15:25:39;2.33;;;2.10;;
7383;SDS011;3733;47.994;8.820;2023-03-16T15:30:40;3.13;;;2.23;;
7383;SDS011;3733;47.994;8.820;2023-03-16T15:33:07;7.10;;;1.90;;
7383;SDS011;3733;47.994;8.820;2023-03-16T15:35:33;2.13;;;1.87;;
7383;SDS011;3733;47.994;8.820;2023-03-16T15:38:00;3.17;;;2.20;;
7383;SDS011;3733;47.994;8.820;2023-03-16T15:40:30;2.00;;;1.80;;
7383;SDS011;3733;47.994;8.820;2023-03-16T15:42:56;2.10;;;1.90;;
7383;SDS011;3733;47.994;8.820;2023-03-16T15:45:22;3.43;;;2.47;;
7383;SDS011;3733;47.994;8.820;2023-03-16T15:47:49;6.80;;;2.40;;
7383;SDS011;3733;47.994;8.820;2023-03-16T15:50:16;2.33;;;2.10;;
7383;SDS011;3733;47.994;8.820;2023-03-16T15:52:46;4.83;;;2.40;;
7383;SDS011;3733;47.994;8.820;2023-03-16T15:55:16;5.03;;;2.57;;
7383;SDS011;3733;47.994;8.820;2023-03-16T15:57:45;4.00;;;2.60;;
7383;SDS011;3733;47.994;8.820;2023-03-16T16:00:33;2.50;;;2.30;;
7383;SDS011;3733;47.994;8.820;2023-03-16T16:03:02;1.97;;;1.77;;
7383;SDS011;3733;47.994;8.820;2023-03-16T16:05:30;2.60;;;2.40;;
7383;SDS011;3733;47.994;8.820;2023-03-16T16:07:56;8.83;;;4.37;;
7383;SDS011;3733;47.994;8.820;2023-03-16T16:10:22;5.63;;;3.63;;
7383;SDS011;3733;47.994;8.820;2023-03-16T16:12:50;5.10;;;3.63;;
7383;SDS011;3733;47.994;8.820;2023-03-16T16:15:22;3.30;;;2.60;;
7383;SDS011;3733;47.994;8.820;2023-03-16T16:17:59;4.03;;;2.60;;
7383;SDS011;3733;47.994;8.820;2023-03-16T16:20:29;2.77;;;2.47;;
7383;SDS011;3733;47.994;8.820;2023-03-16T16:22:56;3.20;;;2.23;;
7383;SDS011;3733;47.994;8.820;2023-03-16T16:25:36;3.77;;;2.33;;
7383;SDS011;3733;47.994;8.820;2023-03-16T16:28:10;2.43;;;2.23;;
7383;SDS011;3733;47.994;8.820;2023-03-16T16:30:42;2.10;;;1.90;;
7383;SDS011;3733;47.994;8.820;2023-03-16T16:33:24;3.20;;;2.27;;
7383;SDS011;3733;47.994;8.820;2023-03-16T16:35:54;6.23;;;2.00;;
7383;SDS011;3733;47.994;8.820;2023-03-16T16:38:21;3.27;;;1.97;;
7383;SDS011;3733;47.994;8.820;2023-03-16T16:40:48;3.20;;;2.30;;
7383;SDS011;3733;47.994;8.820;2023-03-16T16:45:59;4.93;;;3.10;;
7383;SDS011;3733;47.994;8.820;2023-03-16T16:51:19;2.60;;;2.40;;
7383;SDS011;3733;47.994;8.820;2023-03-16T16:53:47;9.13;;;3.20;;
7383;SDS011;3733;47.994;8.820;2023-03-16T16:56:15;2.73;;;2.50;;